sensor_id;sensor_type;location;lat;lon;timestamp;pressure;altitude;pressure_sealevel;temperature;humidity
41230;BME280;26964;50.428;19.218;2024-01-16T00:00:26;1000.4;;;-1.5;76.5
41230;BME280;26964;50.428;19.218;2024-01-16T00:01:26;1000.3;;;-1.5;76.5
41230;BME280;26964;50.428;19.218;2024-01-16T00:02:26;1000.3;;;-1.5;76.5
41230;BME280;26964;50.428;19.218;2024-01-16T00:03:26;1000.4;;;-1.5;76.5
41230;BME280;26964;50.428;19.218;2024-01-16T00:04:26;1000.4;;;-1.5;76.5
41230;BME280;26964;50.428;19.218;2024-01-16T00:05:26;1000.5;;;-1.5;76.5
41230;BME280;26964;50.428;19.218;2024-01-16T00:06:26;1000.4;;;-1.5;76.6
41230;BME280;26964;50.428;19.218;2024-01-16T00:07:26;1000.5;;;-1.5;76.5
41230;BME280;26964;50.428;19.218;2024-01-16T00:08:26;1000.4;;;-1.5;76.5
41230;BME280;26964;50.428;19.218;2024-01-16T00:09:27;1000.6;;;-1.5;76.5
41230;BME280;26964;50.428;19.218;2024-01-16T00:10:27;1000.6;;;-1.5;76.5
41230;BME280;26964;50.428;19.218;2024-01-16T00:11:27;1000.5;;;-1.5;76.5
41230;BME280;26964;50.428;19.218;2024-01-16T00:12:27;1000.6;;;-1.5;76.6
41230;BME280;26964;50.428;19.218;2024-01-16T00:13:27;1000.6;;;-1.5;76.6
41230;BME280;26964;50.428;19.218;2024-01-16T00:14:27;1000.5;;;-1.5;76.6
41230;BME280;26964;50.428;19.218;2024-01-16T00:15:27;1000.6;;;-1.5;76.6
41230;BME280;26964;50.428;19.218;2024-01-16T00:16:26;1000.5;;;-1.5;76.6
41230;BME280;26964;50.428;19.218;2024-01-16T00:17:27;1000.5;;;-1.5;76.6
41230;BME280;26964;50.428;19.218;2024-01-16T00:18:27;1000.6;;;-1.5;76.6
41230;BME280;26964;50.428;19.218;2024-01-16T00:19:27;1000.6;;;-1.5;76.6
41230;BME280;26964;50.428;19.218;2024-01-16T00:20:27;1000.5;;;-1.5;76.6
41230;BME280;26964;50.428;19.218;2024-01-16T00:21:27;1000.5;;;-1.5;76.6
41230;BME280;26964;50.428;19.218;2024-01-16T00:22:26;1000.6;;;-1.5;76.6
41230;BME280;26964;50.428;19.218;2024-01-16T00:23:27;1000.5;;;-1.5;76.6
41230;BME280;26964;50.428;19.218;2024-01-16T00:24:27;1000.7;;;-1.5;76.6
41230;BME280;26964;50.428;19.218;2024-01-16T00:25:27;1000.6;;;-1.5;76.6
41230;BME280;26964;50.428;19.218;2024-01-16T00:26:26;1000.6;;;-1.5;76.6
41230;BME280;26964;50.428;19.218;2024-01-16T00:27:27;1000.7;;;-1.5;76.6
41230;BME280;26964;50.428;19.218;2024-01-16T00:28:27;1000.7;;;-1.5;76.6
41230;BME280;26964;50.428;19.218;2024-01-16T00:29:27;1000.7;;;-1.5;76.5
41230;BME280;26964;50.428;19.218;2024-01-16T00:30:26;1000.7;;;-1.5;76.5
41230;BME280;26964;50.428;19.218;2024-01-16T00:31:26;1000.7;;;-1.5;76.5
41230;BME280;26964;50.428;19.218;2024-01-16T00:32:27;1000.7;;;-1.5;76.5
41230;BME280;26964;50.428;19.218;2024-01-16T00:33:27;1000.7;;;-1.5;76.5
41230;BME280;26964;50.428;19.218;2024-01-16T00:34:27;1000.8;;;-1.5;76.5
41230;BME280;26964;50.428;19.218;2024-01-16T00:35:27;1000.9;;;-1.5;76.5
41230;BME280;26964;50.428;19.218;2024-01-16T00:36:27;1000.9;;;-1.5;76.5
41230;BME280;26964;50.428;19.218;2024-01-16T00:37:27;1000.9;;;-1.5;76.5
41230;BME280;26964;50.428;19.218;2024-01-16T00:38:27;1000.9;;;-1.5;76.5
41230;BME280;26964;50.428;19.218;2024-01-16T00:39:27;1000.9;;;-1.5;76.6
41230;BME280;26964;50.428;19.218;2024-01-16T00:40:27;1000.8;;;-1.5;76.5
41230;BME280;26964;50.428;19.218;2024-01-16T00:41:27;1000.7;;;-1.5;76.5
41230;BME280;26964;50.428;19.218;2024-01-16T00:42:26;1000.8;;;-1.5;76.5
41230;BME280;26964;50.428;19.218;2024-01-16T00:43:27;1000.9;;;-1.5;76.5
41230;BME280;26964;50.428;19.218;2024-01-16T00:44:27;1000.8;;;-1.5;76.5
41230;BME280;26964;50.428;19.218;2024-01-16T00:45:27;1000.9;;;-1.5;76.5
41230;BME280;26964;50.428;19.218;2024-01-16T00:46:27;1000.9;;;-1.5;76.5
41230;BME280;26964;50.428;19.218;2024-01-16T00:47:26;1000.9;;;-1.5;76.5
41230;BME280;26964;50.428;19.218;2024-01-16T00:48:27;1001.0;;;-1.5;76.6
41230;BME280;26964;50.428;19.218;2024-01-16T00:49:27;1001.1;;;-1.5;76.6
41230;BME280;26964;50.428;19.218;2024-01-16T00:50:27;1001.0;;;-1.5;76.6
41230;BME280;26964;50.428;19.218;2024-01-16T00:51:27;1001.1;;;-1.5;76.6
41230;BME280;26964;50.428;19.218;2024-01-16T00:52:26;1001.0;;;-1.5;76.6
41230;BME280;26964;50.428;19.218;2024-01-16T00:53:26;1001.1;;;-1.5;76.6
41230;BME280;26964;50.428;19.218;2024-01-16T00:54:27;1001.1;;;-1.5;76.7
41230;BME280;26964;50.428;19.218;2024-01-16T00:55:26;1001.1;;;-1.5;76.7
41230;BME280;26964;50.428;19.218;2024-01-16T00:56:27;1001.1;;;-1.5;76.7
41230;BME280;26964;50.428;19.218;2024-01-16T00:57:27;1001.1;;;-1.4;76.7
41230;BME280;26964;50.428;19.218;2024-01-16T00:58:27;1001.0;;;-1.4;76.7
41230;BME280;26964;50.428;19.218;2024-01-16T00:59:26;1001.1;;;-1.4;76.7
41230;BME280;26964;50.428;19.218;2024-01-16T01:00:26;1001.1;;;-1.4;76.7
41230;BME280;26964;50.428;19.218;2024-01-16T01:01:27;1001.1;;;-1.4;76.7
41230;BME280;26964;50.428;19.218;2024-01-16T01:02:27;1001.1;;;-1.4;76.7
41230;BME280;26964;50.428;19.218;2024-01-16T01:03:26;1001.1;;;-1.4;76.7
41230;BME280;26964;50.428;19.218;2024-01-16T01:04:27;1001.0;;;-1.4;76.7
41230;BME280;26964;50.428;19.218;2024-01-16T01:05:27;1001.1;;;-1.4;76.7
41230;BME280;26964;50.428;19.218;2024-01-16T01:06:27;1001.1;;;-1.4;76.6
41230;BME280;26964;50.428;19.218;2024-01-16T01:07:27;1001.1;;;-1.4;76.6
41230;BME280;26964;50.428;19.218;2024-01-16T01:08:27;1001.2;;;-1.4;76.6
41230;BME280;26964;50.428;19.218;2024-01-16T01:09:27;1001.1;;;-1.4;76.6
41230;BME280;26964;50.428;19.218;2024-01-16T01:10:27;1001.1;;;-1.4;76.6
41230;BME280;26964;50.428;19.218;2024-01-16T01:11:26;1001.1;;;-1.5;76.5
41230;BME280;26964;50.428;19.218;2024-01-16T01:12:27;1001.2;;;-1.5;76.5
41230;BME280;26964;50.428;19.218;2024-01-16T01:13:27;1001.2;;;-1.5;76.5
41230;BME280;26964;50.428;19.218;2024-01-16T01:14:26;1001.2;;;-1.5;76.5
41230;BME280;26964;50.428;19.218;2024-01-16T01:15:26;1001.2;;;-1.5;76.5
41230;BME280;26964;50.428;19.218;2024-01-16T01:16:27;1001.3;;;-1.5;76.5
41230;BME280;26964;50.428;19.218;2024-01-16T01:17:27;1001.2;;;-1.5;76.5
41230;BME280;26964;50.428;19.218;2024-01-16T01:18:26;1001.2;;;-1.6;76.5
41230;BME280;26964;50.428;19.218;2024-01-16T01:19:27;1001.2;;;-1.6;76.4
41230;BME280;26964;50.428;19.218;2024-01-16T01:20:27;1001.1;;;-1.6;76.4
41230;BME280;26964;50.428;19.218;2024-01-16T01:21:26;1001.2;;;-1.6;76.4
41230;BME280;26964;50.428;19.218;2024-01-16T01:22:27;1001.2;;;-1.6;76.4
41230;BME280;26964;50.428;19.218;2024-01-16T01:23:27;1001.2;;;-1.6;76.4
41230;BME280;26964;50.428;19.218;2024-01-16T01:24:27;1001.2;;;-1.7;76.5
41230;BME280;26964;50.428;19.218;2024-01-16T01:25:26;1001.2;;;-1.7;76.5
41230;BME280;26964;50.428;19.218;2024-01-16T01:26:27;1001.3;;;-1.7;76.5
41230;BME280;26964;50.428;19.218;2024-01-16T01:27:27;1001.2;;;-1.7;76.5
41230;BME280;26964;50.428;19.218;2024-01-16T01:28:26;1001.2;;;-1.7;76.5
41230;BME280;26964;50.428;19.218;2024-01-16T01:29:27;1001.2;;;-1.7;76.6
41230;BME280;26964;50.428;19.218;2024-01-16T01:30:27;1001.2;;;-1.7;76.6
41230;BME280;26964;50.428;19.218;2024-01-16T01:31:27;1001.2;;;-1.7;76.6
41230;BME280;26964;50.428;19.218;2024-01-16T01:32:27;1001.1;;;-1.7;76.6
41230;BME280;26964;50.428;19.218;2024-01-16T01:33:27;1001.2;;;-1.7;76.6
41230;BME280;26964;50.428;19.218;2024-01-16T01:34:27;1001.2;;;-1.7;76.6
41230;BME280;26964;50.428;19.218;2024-01-16T01:35:27;1001.2;;;-1.7;76.6
41230;BME280;26964;50.428;19.218;2024-01-16T01:36:26;1001.2;;;-1.7;76.6
41230;BME280;26964;50.428;19.218;2024-01-16T01:37:26;1001.2;;;-1.8;76.6
41230;BME280;26964;50.428;19.218;2024-01-16T01:38:27;1001.3;;;-1.8;76.6
41230;BME280;26964;50.428;19.218;2024-01-16T01:39:27;1001.3;;;-1.8;76.6
41230;BME280;26964;50.428;19.218;2024-01-16T01:40:27;1001.2;;;-1.8;76.5
41230;BME280;26964;50.428;19.218;2024-01-16T01:41:27;1001.2;;;-1.8;76.5
41230;BME280;26964;50.428;19.218;2024-01-16T01:42:27;1001.2;;;-1.8;76.5
41230;BME280;26964;50.428;19.218;2024-01-16T01:43:26;1001.2;;;-1.8;76.6
41230;BME280;26964;50.428;19.218;2024-01-16T01:44:27;1001.2;;;-1.8;76.6
41230;BME280;26964;50.428;19.218;2024-01-16T01:45:27;1001.3;;;-1.8;76.6
41230;BME280;26964;50.428;19.218;2024-01-16T01:46:26;1001.3;;;-1.8;76.6
41230;BME280;26964;50.428;19.218;2024-01-16T01:47:26;1001.2;;;-1.8;76.6
41230;BME280;26964;50.428;19.218;2024-01-16T01:48:26;1001.3;;;-1.8;76.6
41230;BME280;26964;50.428;19.218;2024-01-16T01:49:26;1001.3;;;-1.8;76.6
41230;BME280;26964;50.428;19.218;2024-01-16T01:50:27;1001.3;;;-1.8;76.6
41230;BME280;26964;50.428;19.218;2024-01-16T01:51:27;1001.2;;;-1.8;76.6
41230;BME280;26964;50.428;19.218;2024-01-16T01:52:27;1001.3;;;-1.8;76.6
41230;BME280;26964;50.428;19.218;2024-01-16T01:53:26;1001.2;;;-1.8;76.6
41230;BME280;26964;50.428;19.218;2024-01-16T01:54:26;1001.2;;;-1.8;76.6
41230;BME280;26964;50.428;19.218;2024-01-16T01:55:27;1001.3;;;-1.7;76.7
41230;BME280;26964;50.428;19.218;2024-01-16T01:56:26;1001.3;;;-1.7;76.6
41230;BME280;26964;50.428;19.218;2024-01-16T01:57:27;1001.4;;;-1.7;76.6
41230;BME280;26964;50.428;19.218;2024-01-16T01:58:26;1001.3;;;-1.7;76.6
41230;BME280;26964;50.428;19.218;2024-01-16T01:59:26;1001.3;;;-1.7;76.6
41230;BME280;26964;50.428;19.218;2024-01-16T02:00:26;1001.4;;;-1.7;76.6
41230;BME280;26964;50.428;19.218;2024-01-16T02:01:27;1001.4;;;-1.7;76.6
41230;BME280;26964;50.428;19.218;2024-01-16T02:02:26;1001.3;;;-1.7;76.6
41230;BME280;26964;50.428;19.218;2024-01-16T02:03:27;1001.3;;;-1.7;76.6
41230;BME280;26964;50.428;19.218;2024-01-16T02:04:26;1001.3;;;-1.7;76.6
41230;BME280;26964;50.428;19.218;2024-01-16T02:05:26;1001.4;;;-1.7;76.6
41230;BME280;26964;50.428;19.218;2024-01-16T02:06:27;1001.4;;;-1.7;76.6
41230;BME280;26964;50.428;19.218;2024-01-16T02:07:26;1001.4;;;-1.7;76.6
41230;BME280;26964;50.428;19.218;2024-01-16T02:08:26;1001.4;;;-1.7;76.6
41230;BME280;26964;50.428;19.218;2024-01-16T02:09:27;1001.4;;;-1.7;76.7
41230;BME280;26964;50.428;19.218;2024-01-16T02:10:26;1001.4;;;-1.7;76.6
41230;BME280;26964;50.428;19.218;2024-01-16T02:11:26;1001.4;;;-1.6;76.6
41230;BME280;26964;50.428;19.218;2024-01-16T02:12:26;1001.4;;;-1.6;76.7
41230;BME280;26964;50.428;19.218;2024-01-16T02:13:28;1001.5;;;-1.6;76.7
41230;BME280;26964;50.428;19.218;2024-01-16T02:14:27;1001.6;;;-1.6;76.7
41230;BME280;26964;50.428;19.218;2024-01-16T02:15:27;1001.6;;;-1.6;76.7
41230;BME280;26964;50.428;19.218;2024-01-16T02:16:27;1001.6;;;-1.6;76.7
41230;BME280;26964;50.428;19.218;2024-01-16T02:17:27;1001.6;;;-1.6;76.7
41230;BME280;26964;50.428;19.218;2024-01-16T02:18:26;1001.6;;;-1.6;76.7
41230;BME280;26964;50.428;19.218;2024-01-16T02:19:27;1001.7;;;-1.6;76.7
41230;BME280;26964;50.428;19.218;2024-01-16T02:20:26;1001.7;;;-1.6;76.7
41230;BME280;26964;50.428;19.218;2024-01-16T02:21:31;1001.7;;;-1.6;76.7
41230;BME280;26964;50.428;19.218;2024-01-16T02:22:29;1001.7;;;-1.6;76.7
41230;BME280;26964;50.428;19.218;2024-01-16T02:23:26;1001.6;;;-1.6;76.7
41230;BME280;26964;50.428;19.218;2024-01-16T02:24:26;1001.5;;;-1.6;76.7
41230;BME280;26964;50.428;19.218;2024-01-16T02:25:27;1001.6;;;-1.6;76.7
41230;BME280;26964;50.428;19.218;2024-01-16T02:26:27;1001.6;;;-1.6;76.7
41230;BME280;26964;50.428;19.218;2024-01-16T02:27:26;1001.7;;;-1.6;76.8
41230;BME280;26964;50.428;19.218;2024-01-16T02:28:26;1001.7;;;-1.6;76.8
41230;BME280;26964;50.428;19.218;2024-01-16T02:29:26;1001.7;;;-1.5;76.8
41230;BME280;26964;50.428;19.218;2024-01-16T02:30:26;1001.7;;;-1.5;76.8
41230;BME280;26964;50.428;19.218;2024-01-16T02:31:27;1001.7;;;-1.5;76.8
41230;BME280;26964;50.428;19.218;2024-01-16T02:32:27;1001.7;;;-1.5;76.8
41230;BME280;26964;50.428;19.218;2024-01-16T02:33:26;1001.7;;;-1.5;76.8
41230;BME280;26964;50.428;19.218;2024-01-16T02:34:26;1001.8;;;-1.5;76.8
41230;BME280;26964;50.428;19.218;2024-01-16T02:35:27;1001.7;;;-1.5;76.8
41230;BME280;26964;50.428;19.218;2024-01-16T02:36:26;1001.7;;;-1.6;76.8
41230;BME280;26964;50.428;19.218;2024-01-16T02:37:26;1001.7;;;-1.5;76.9
41230;BME280;26964;50.428;19.218;2024-01-16T02:38:27;1001.7;;;-1.6;76.8
41230;BME280;26964;50.428;19.218;2024-01-16T02:39:26;1001.7;;;-1.6;76.8
41230;BME280;26964;50.428;19.218;2024-01-16T02:40:26;1001.8;;;-1.6;76.8
41230;BME280;26964;50.428;19.218;2024-01-16T02:41:26;1001.7;;;-1.6;76.9
41230;BME280;26964;50.428;19.218;2024-01-16T02:42:26;1001.8;;;-1.6;76.9
41230;BME280;26964;50.428;19.218;2024-01-16T02:43:26;1001.8;;;-1.6;76.9
41230;BME280;26964;50.428;19.218;2024-01-16T02:44:27;1001.7;;;-1.6;76.9
41230;BME280;26964;50.428;19.218;2024-01-16T02:45:26;1001.8;;;-1.6;76.9
41230;BME280;26964;50.428;19.218;2024-01-16T02:46:26;1001.8;;;-1.6;76.9
41230;BME280;26964;50.428;19.218;2024-01-16T02:47:27;1001.8;;;-1.6;76.9
41230;BME280;26964;50.428;19.218;2024-01-16T02:48:26;1001.7;;;-1.6;76.9
41230;BME280;26964;50.428;19.218;2024-01-16T02:49:26;1001.7;;;-1.6;76.9
41230;BME280;26964;50.428;19.218;2024-01-16T02:50:27;1001.7;;;-1.7;76.9
41230;BME280;26964;50.428;19.218;2024-01-16T02:51:26;1001.7;;;-1.6;76.9
41230;BME280;26964;50.428;19.218;2024-01-16T02:52:27;1001.8;;;-1.7;76.9
41230;BME280;26964;50.428;19.218;2024-01-16T02:53:26;1001.7;;;-1.7;77.0
41230;BME280;26964;50.428;19.218;2024-01-16T02:54:26;1001.7;;;-1.7;77.0
41230;BME280;26964;50.428;19.218;2024-01-16T02:55:26;1001.7;;;-1.7;77.0
41230;BME280;26964;50.428;19.218;2024-01-16T02:56:26;1001.8;;;-1.6;77.0
41230;BME280;26964;50.428;19.218;2024-01-16T02:57:27;1001.8;;;-1.7;77.0
41230;BME280;26964;50.428;19.218;2024-01-16T02:58:27;1001.8;;;-1.7;77.0
41230;BME280;26964;50.428;19.218;2024-01-16T02:59:26;1001.8;;;-1.7;77.0
41230;BME280;26964;50.428;19.218;2024-01-16T03:00:26;1001.7;;;-1.7;77.0
41230;BME280;26964;50.428;19.218;2024-01-16T03:01:26;1001.8;;;-1.7;77.1
41230;BME280;26964;50.428;19.218;2024-01-16T03:02:26;1001.7;;;-1.7;77.1
41230;BME280;26964;50.428;19.218;2024-01-16T03:03:26;1001.8;;;-1.7;77.1
41230;BME280;26964;50.428;19.218;2024-01-16T03:04:26;1001.9;;;-1.7;77.0
41230;BME280;26964;50.428;19.218;2024-01-16T03:05:26;1001.9;;;-1.7;77.1
41230;BME280;26964;50.428;19.218;2024-01-16T03:06:26;1001.9;;;-1.7;77.1
41230;BME280;26964;50.428;19.218;2024-01-16T03:07:26;1001.8;;;-1.7;77.1
41230;BME280;26964;50.428;19.218;2024-01-16T03:08:26;1001.9;;;-1.8;77.1
41230;BME280;26964;50.428;19.218;2024-01-16T03:09:26;1001.8;;;-1.8;77.1
41230;BME280;26964;50.428;19.218;2024-01-16T03:10:26;1001.8;;;-1.8;77.2
41230;BME280;26964;50.428;19.218;2024-01-16T03:11:27;1001.8;;;-1.8;77.2
41230;BME280;26964;50.428;19.218;2024-01-16T03:12:26;1001.9;;;-1.8;77.2
41230;BME280;26964;50.428;19.218;2024-01-16T03:13:26;1001.8;;;-1.8;77.2
41230;BME280;26964;50.428;19.218;2024-01-16T03:14:26;1001.8;;;-1.8;77.3
41230;BME280;26964;50.428;19.218;2024-01-16T03:15:26;1001.8;;;-1.8;77.4
41230;BME280;26964;50.428;19.218;2024-01-16T03:16:27;1001.8;;;-1.9;77.3
41230;BME280;26964;50.428;19.218;2024-01-16T03:17:26;1001.8;;;-1.9;77.3
41230;BME280;26964;50.428;19.218;2024-01-16T03:18:26;1001.8;;;-1.9;77.4
41230;BME280;26964;50.428;19.218;2024-01-16T03:19:26;1001.8;;;-1.9;77.4
41230;BME280;26964;50.428;19.218;2024-01-16T03:20:26;1001.9;;;-1.9;77.4
41230;BME280;26964;50.428;19.218;2024-01-16T03:21:26;1001.9;;;-1.9;77.4
41230;BME280;26964;50.428;19.218;2024-01-16T03:22:26;1001.8;;;-1.9;77.5
41230;BME280;26964;50.428;19.218;2024-01-16T03:23:26;1001.8;;;-1.9;77.5
41230;BME280;26964;50.428;19.218;2024-01-16T03:24:26;1001.8;;;-1.9;77.5
41230;BME280;26964;50.428;19.218;2024-01-16T03:25:25;1001.8;;;-1.9;77.5
41230;BME280;26964;50.428;19.218;2024-01-16T03:26:26;1001.9;;;-1.9;77.5
41230;BME280;26964;50.428;19.218;2024-01-16T03:27:26;1001.8;;;-1.9;77.5
41230;BME280;26964;50.428;19.218;2024-01-16T03:28:26;1001.8;;;-1.9;77.5
41230;BME280;26964;50.428;19.218;2024-01-16T03:29:26;1001.9;;;-1.9;77.6
41230;BME280;26964;50.428;19.218;2024-01-16T03:30:26;1002.0;;;-1.9;77.6
41230;BME280;26964;50.428;19.218;2024-01-16T03:31:25;1002.0;;;-2.0;77.6
41230;BME280;26964;50.428;19.218;2024-01-16T03:32:26;1002.0;;;-2.0;77.6
41230;BME280;26964;50.428;19.218;2024-01-16T03:33:27;1002.0;;;-2.0;77.7
41230;BME280;26964;50.428;19.218;2024-01-16T03:34:26;1001.9;;;-2.0;77.6
41230;BME280;26964;50.428;19.218;2024-01-16T03:35:26;1001.9;;;-2.0;77.7
41230;BME280;26964;50.428;19.218;2024-01-16T03:36:26;1002.0;;;-2.0;77.9
41230;BME280;26964;50.428;19.218;2024-01-16T03:37:26;1002.1;;;-2.0;77.8
41230;BME280;26964;50.428;19.218;2024-01-16T03:38:26;1002.0;;;-2.0;78.0
41230;BME280;26964;50.428;19.218;2024-01-16T03:39:26;1002.0;;;-2.0;77.9
41230;BME280;26964;50.428;19.218;2024-01-16T03:40:26;1002.0;;;-2.0;77.9
41230;BME280;26964;50.428;19.218;2024-01-16T03:41:26;1002.0;;;-2.0;78.0
41230;BME280;26964;50.428;19.218;2024-01-16T03:42:26;1002.0;;;-2.0;77.9
41230;BME280;26964;50.428;19.218;2024-01-16T03:43:26;1002.0;;;-2.0;77.9
41230;BME280;26964;50.428;19.218;2024-01-16T03:44:26;1002.0;;;-2.0;77.9
41230;BME280;26964;50.428;19.218;2024-01-16T03:45:26;1002.0;;;-2.0;78.0
41230;BME280;26964;50.428;19.218;2024-01-16T03:46:26;1002.1;;;-2.0;77.9
41230;BME280;26964;50.428;19.218;2024-01-16T03:47:26;1002.0;;;-2.0;78.0
41230;BME280;26964;50.428;19.218;2024-01-16T03:48:26;1002.1;;;-2.0;78.0
41230;BME280;26964;50.428;19.218;2024-01-16T03:49:26;1002.1;;;-2.0;78.0
41230;BME280;26964;50.428;19.218;2024-01-16T03:50:26;1002.2;;;-2.0;78.0
41230;BME280;26964;50.428;19.218;2024-01-16T03:51:26;1002.3;;;-2.0;78.1
41230;BME280;26964;50.428;19.218;2024-01-16T03:52:26;1002.3;;;-2.0;78.1
41230;BME280;26964;50.428;19.218;2024-01-16T03:53:26;1002.5;;;-2.0;78.2
41230;BME280;26964;50.428;19.218;2024-01-16T03:54:26;1002.7;;;-2.0;78.3
41230;BME280;26964;50.428;19.218;2024-01-16T03:55:26;1002.7;;;-2.0;78.3
41230;BME280;26964;50.428;19.218;2024-01-16T03:56:26;1002.7;;;-2.0;78.3
41230;BME280;26964;50.428;19.218;2024-01-16T03:57:26;1002.8;;;-2.1;78.4
41230;BME280;26964;50.428;19.218;2024-01-16T03:58:26;1002.7;;;-2.1;78.3
41230;BME280;26964;50.428;19.218;2024-01-16T03:59:26;1002.8;;;-2.1;78.4
41230;BME280;26964;50.428;19.218;2024-01-16T04:00:25;1002.7;;;-2.2;78.3
41230;BME280;26964;50.428;19.218;2024-01-16T04:02:26;1002.9;;;-2.2;78.2
41230;BME280;26964;50.428;19.218;2024-01-16T04:03:26;1002.9;;;-2.2;78.2
41230;BME280;26964;50.428;19.218;2024-01-16T04:04:25;1002.8;;;-2.3;78.2
41230;BME280;26964;50.428;19.218;2024-01-16T04:05:26;1002.8;;;-2.3;78.2
41230;BME280;26964;50.428;19.218;2024-01-16T04:06:25;1002.9;;;-2.3;78.3
41230;BME280;26964;50.428;19.218;2024-01-16T04:07:26;1002.9;;;-2.3;78.3
41230;BME280;26964;50.428;19.218;2024-01-16T04:08:26;1002.9;;;-2.3;78.2
41230;BME280;26964;50.428;19.218;2024-01-16T04:09:26;1003.0;;;-2.4;78.3
41230;BME280;26964;50.428;19.218;2024-01-16T04:10:26;1003.0;;;-2.4;78.3
41230;BME280;26964;50.428;19.218;2024-01-16T04:11:26;1003.0;;;-2.4;78.2
41230;BME280;26964;50.428;19.218;2024-01-16T04:12:26;1003.0;;;-2.4;78.3
41230;BME280;26964;50.428;19.218;2024-01-16T04:13:26;1003.0;;;-2.4;78.2
41230;BME280;26964;50.428;19.218;2024-01-16T04:14:26;1003.0;;;-2.4;78.2
41230;BME280;26964;50.428;19.218;2024-01-16T04:15:26;1003.0;;;-2.4;78.1
41230;BME280;26964;50.428;19.218;2024-01-16T04:16:26;1003.1;;;-2.4;78.2
41230;BME280;26964;50.428;19.218;2024-01-16T04:17:26;1003.0;;;-2.4;78.2
41230;BME280;26964;50.428;19.218;2024-01-16T04:18:26;1003.1;;;-2.5;78.1
41230;BME280;26964;50.428;19.218;2024-01-16T04:19:26;1003.1;;;-2.5;78.1
41230;BME280;26964;50.428;19.218;2024-01-16T04:20:26;1003.0;;;-2.5;78.1
41230;BME280;26964;50.428;19.218;2024-01-16T04:21:26;1003.2;;;-2.5;78.1
41230;BME280;26964;50.428;19.218;2024-01-16T04:22:26;1003.2;;;-2.5;78.1
41230;BME280;26964;50.428;19.218;2024-01-16T04:23:26;1003.3;;;-2.5;78.1
41230;BME280;26964;50.428;19.218;2024-01-16T04:24:26;1003.3;;;-2.5;78.2
41230;BME280;26964;50.428;19.218;2024-01-16T04:25:26;1003.3;;;-2.5;78.1
41230;BME280;26964;50.428;19.218;2024-01-16T04:26:26;1003.3;;;-2.5;78.0
41230;BME280;26964;50.428;19.218;2024-01-16T04:27:26;1003.3;;;-2.5;78.1
41230;BME280;26964;50.428;19.218;2024-01-16T04:28:26;1003.4;;;-2.5;78.1
41230;BME280;26964;50.428;19.218;2024-01-16T04:29:26;1003.4;;;-2.5;78.0
41230;BME280;26964;50.428;19.218;2024-01-16T04:30:26;1003.3;;;-2.5;78.0
41230;BME280;26964;50.428;19.218;2024-01-16T04:31:26;1003.3;;;-2.5;78.0
41230;BME280;26964;50.428;19.218;2024-01-16T04:32:26;1003.4;;;-2.6;78.0
41230;BME280;26964;50.428;19.218;2024-01-16T04:33:27;1003.4;;;-2.6;78.1
41230;BME280;26964;50.428;19.218;2024-01-16T04:34:26;1003.3;;;-2.6;78.1
41230;BME280;26964;50.428;19.218;2024-01-16T04:35:26;1003.3;;;-2.6;78.0
41230;BME280;26964;50.428;19.218;2024-01-16T04:36:26;1003.2;;;-2.7;78.0
41230;BME280;26964;50.428;19.218;2024-01-16T04:37:26;1003.3;;;-2.7;78.0
41230;BME280;26964;50.428;19.218;2024-01-16T04:38:26;1003.3;;;-2.7;78.0
41230;BME280;26964;50.428;19.218;2024-01-16T04:39:26;1003.3;;;-2.7;78.0
41230;BME280;26964;50.428;19.218;2024-01-16T04:40:26;1003.3;;;-2.7;78.0
41230;BME280;26964;50.428;19.218;2024-01-16T04:41:26;1003.3;;;-2.7;78.0
41230;BME280;26964;50.428;19.218;2024-01-16T04:42:26;1003.2;;;-2.7;78.0
41230;BME280;26964;50.428;19.218;2024-01-16T04:43:25;1003.4;;;-2.7;78.0
41230;BME280;26964;50.428;19.218;2024-01-16T04:44:26;1003.4;;;-2.7;77.9
41230;BME280;26964;50.428;19.218;2024-01-16T04:45:25;1003.4;;;-2.8;77.9
41230;BME280;26964;50.428;19.218;2024-01-16T04:46:26;1003.3;;;-2.8;77.9
41230;BME280;26964;50.428;19.218;2024-01-16T04:47:26;1003.3;;;-2.8;77.9
41230;BME280;26964;50.428;19.218;2024-01-16T04:48:27;1003.3;;;-2.8;77.9
41230;BME280;26964;50.428;19.218;2024-01-16T04:49:26;1003.3;;;-2.8;77.9
41230;BME280;26964;50.428;19.218;2024-01-16T04:50:26;1003.4;;;-2.8;77.8
41230;BME280;26964;50.428;19.218;2024-01-16T04:51:26;1003.3;;;-2.9;77.8
41230;BME280;26964;50.428;19.218;2024-01-16T04:52:26;1003.3;;;-2.9;77.8
41230;BME280;26964;50.428;19.218;2024-01-16T04:53:26;1003.4;;;-2.9;77.8
41230;BME280;26964;50.428;19.218;2024-01-16T04:54:26;1003.3;;;-2.9;77.9
41230;BME280;26964;50.428;19.218;2024-01-16T04:55:26;1003.3;;;-2.9;77.8
41230;BME280;26964;50.428;19.218;2024-01-16T04:56:25;1003.2;;;-2.9;77.9
41230;BME280;26964;50.428;19.218;2024-01-16T04:57:25;1003.3;;;-3.0;77.8
41230;BME280;26964;50.428;19.218;2024-01-16T04:58:25;1003.4;;;-3.0;77.9
41230;BME280;26964;50.428;19.218;2024-01-16T04:59:26;1003.3;;;-3.0;77.8
41230;BME280;26964;50.428;19.218;2024-01-16T05:00:26;1003.4;;;-3.0;77.8
41230;BME280;26964;50.428;19.218;2024-01-16T05:01:25;1003.4;;;-3.0;77.9
41230;BME280;26964;50.428;19.218;2024-01-16T05:02:26;1003.5;;;-3.0;77.9
41230;BME280;26964;50.428;19.218;2024-01-16T05:03:26;1003.5;;;-3.0;77.9
41230;BME280;26964;50.428;19.218;2024-01-16T05:04:26;1003.5;;;-3.0;77.9
41230;BME280;26964;50.428;19.218;2024-01-16T05:05:26;1003.5;;;-3.0;77.9
41230;BME280;26964;50.428;19.218;2024-01-16T05:06:26;1003.5;;;-3.0;77.9
41230;BME280;26964;50.428;19.218;2024-01-16T05:07:25;1003.5;;;-3.0;77.9
41230;BME280;26964;50.428;19.218;2024-01-16T05:08:26;1003.6;;;-3.0;77.9
41230;BME280;26964;50.428;19.218;2024-01-16T05:09:26;1003.6;;;-3.0;77.9
41230;BME280;26964;50.428;19.218;2024-01-16T05:10:25;1003.5;;;-3.0;77.9
41230;BME280;26964;50.428;19.218;2024-01-16T05:11:26;1003.6;;;-3.0;77.9
41230;BME280;26964;50.428;19.218;2024-01-16T05:12:26;1003.5;;;-3.0;78.0
41230;BME280;26964;50.428;19.218;2024-01-16T05:13:26;1003.5;;;-3.0;78.0
41230;BME280;26964;50.428;19.218;2024-01-16T05:14:26;1003.5;;;-3.0;78.0
41230;BME280;26964;50.428;19.218;2024-01-16T05:15:26;1003.5;;;-3.0;78.0
41230;BME280;26964;50.428;19.218;2024-01-16T05:16:26;1003.5;;;-3.0;78.0
41230;BME280;26964;50.428;19.218;2024-01-16T05:17:26;1003.5;;;-3.0;78.0
41230;BME280;26964;50.428;19.218;2024-01-16T05:18:25;1003.5;;;-3.0;78.0
41230;BME280;26964;50.428;19.218;2024-01-16T05:19:26;1003.6;;;-3.0;78.0
41230;BME280;26964;50.428;19.218;2024-01-16T05:20:26;1003.6;;;-3.0;78.0
41230;BME280;26964;50.428;19.218;2024-01-16T05:21:26;1003.7;;;-3.0;78.0
41230;BME280;26964;50.428;19.218;2024-01-16T05:22:26;1003.7;;;-3.0;78.0
41230;BME280;26964;50.428;19.218;2024-01-16T05:23:25;1003.7;;;-3.0;78.0
41230;BME280;26964;50.428;19.218;2024-01-16T05:24:26;1003.8;;;-3.0;78.0
41230;BME280;26964;50.428;19.218;2024-01-16T05:25:26;1003.8;;;-3.0;78.0
41230;BME280;26964;50.428;19.218;2024-01-16T05:26:25;1003.9;;;-3.0;78.0
41230;BME280;26964;50.428;19.218;2024-01-16T05:27:26;1003.8;;;-3.0;78.1
41230;BME280;26964;50.428;19.218;2024-01-16T05:28:26;1003.8;;;-3.0;78.0
41230;BME280;26964;50.428;19.218;2024-01-16T05:29:26;1003.8;;;-3.0;78.1
41230;BME280;26964;50.428;19.218;2024-01-16T05:30:26;1003.9;;;-3.0;78.0
41230;BME280;26964;50.428;19.218;2024-01-16T05:31:26;1003.9;;;-3.0;78.0